createdAt,value
2022-08-24T00:02:11.946Z,8.13
2022-08-24T00:05:15.839Z,15.00
2022-08-24T00:08:19.583Z,8.63
2022-08-24T00:11:25.099Z,9.32
2022-08-24T00:14:28.189Z,7.53
2022-08-24T00:17:32.623Z,9.57
2022-08-24T00:20:35.706Z,8.07
2022-08-24T00:23:39.470Z,8.32
2022-08-24T00:26:43.369Z,7.97
2022-08-24T00:29:47.057Z,8.88
2022-08-24T00:32:50.520Z,9.05
2022-08-24T00:35:54.995Z,10.90
2022-08-24T00:38:58.038Z,7.82
2022-08-24T00:42:01.531Z,8.43
2022-08-24T00:45:05.540Z,9.07
2022-08-24T00:48:15.571Z,9.30
2022-08-24T00:51:25.114Z,9.57
2022-08-24T00:54:31.021Z,8.20
2022-08-24T00:57:39.065Z,8.48
2022-08-24T01:00:48.384Z,9.55
2022-08-24T01:03:56.628Z,8.90
2022-08-24T01:07:01.397Z,8.83
2022-08-24T01:10:27.128Z,10.02
2022-08-24T01:13:32.513Z,10.25
2022-08-24T01:16:54.106Z,8.35
2022-08-24T01:20:01.680Z,12.07
2022-08-24T01:23:18.586Z,9.33
2022-08-24T01:26:41.291Z,10.30
2022-08-24T01:29:45.694Z,9.13
2022-08-24T01:33:02.433Z,10.57
2022-08-24T01:36:14.269Z,9.57
2022-08-24T01:39:21.991Z,8.27
2022-08-24T01:42:26.766Z,8.68
2022-08-24T01:45:30.903Z,9.88
2022-08-24T01:48:35.515Z,10.20
2022-08-24T01:51:43.664Z,8.75
2022-08-24T01:54:49.502Z,9.00
2022-08-24T01:57:52.941Z,9.77
2022-08-24T02:00:56.413Z,10.30
2022-08-24T02:04:03.057Z,8.93
2022-08-24T02:07:07.415Z,10.25
2022-08-24T02:10:12.285Z,7.70
2022-08-24T02:13:16.603Z,9.63
2022-08-24T02:16:20.399Z,8.25
2022-08-24T02:19:24.922Z,9.73
2022-08-24T02:22:29.630Z,10.73
2022-08-24T02:25:32.983Z,7.93
2022-08-24T02:28:37.702Z,8.48
2022-08-24T02:31:41.479Z,10.15
2022-08-24T02:34:45.552Z,9.55
2022-08-24T02:37:49.132Z,9.40
2022-08-24T02:40:53.614Z,8.63
2022-08-24T02:43:59.172Z,8.63
2022-08-24T02:47:03.342Z,8.45
2022-08-24T02:50:10.856Z,10.32
2022-08-24T02:53:16.215Z,9.55
2022-08-24T02:56:21.185Z,8.70
2022-08-24T02:59:26.352Z,7.55
2022-08-24T03:02:31.561Z,9.18
2022-08-24T03:05:35.308Z,9.32
2022-08-24T03:08:38.950Z,7.90
2022-08-24T03:11:45.502Z,8.13
2022-08-24T03:14:49.239Z,10.13
2022-08-24T03:17:52.649Z,9.55
2022-08-24T03:20:58.302Z,9.65
2022-08-24T03:24:02.025Z,9.10
2022-08-24T03:27:06.423Z,12.07
2022-08-24T03:30:13.713Z,9.98
2022-08-24T03:33:17.973Z,11.40
2022-08-24T03:36:21.612Z,9.57
2022-08-24T03:39:24.992Z,12.10
2022-08-24T03:42:29.595Z,9.30
2022-08-24T03:45:33.147Z,11.27
2022-08-24T03:48:37.172Z,9.05
2022-08-24T03:51:40.894Z,10.75
2022-08-24T03:54:44.087Z,9.88
2022-08-24T03:57:47.891Z,10.30
2022-08-24T04:00:52.726Z,11.23
2022-08-24T04:03:56.970Z,10.98
2022-08-24T04:07:00.821Z,10.50
2022-08-24T04:10:06.488Z,10.43
2022-08-24T04:13:10.475Z,9.13
2022-08-24T04:16:17.236Z,9.80
2022-08-24T04:19:21.125Z,9.00
2022-08-24T04:22:26.582Z,9.98
2022-08-24T04:25:29.892Z,9.95
2022-08-24T04:28:35.065Z,10.67
2022-08-24T04:31:39.924Z,11.12
2022-08-24T04:34:47.757Z,10.77
2022-08-24T04:37:51.570Z,11.07
2022-08-24T04:40:55.223Z,11.10
2022-08-24T04:44:03.577Z,10.67
2022-08-24T04:47:08.747Z,11.25
2022-08-24T04:50:14.055Z,8.50
2022-08-24T04:53:19.887Z,9.05
2022-08-24T04:56:24.782Z,12.57
2022-08-24T04:59:30.164Z,10.43
2022-08-24T05:02:39.124Z,8.48
2022-08-24T05:05:50.473Z,10.60
2022-08-24T05:08:53.724Z,10.07
2022-08-24T05:11:58.280Z,10.10
2022-08-24T05:15:01.593Z,10.23
2022-08-24T05:18:07.670Z,10.60
2022-08-24T05:21:15.580Z,10.60
2022-08-24T05:24:20.126Z,12.18
2022-08-24T05:27:26.143Z,10.98
2022-08-24T05:30:31.135Z,9.07
2022-08-24T05:33:34.752Z,12.18
2022-08-24T05:36:41.014Z,11.32
2022-08-24T05:39:44.309Z,10.10
2022-08-24T05:42:48.918Z,9.50
2022-08-24T05:45:52.210Z,8.17
2022-08-24T05:48:59.235Z,9.45
2022-08-24T05:52:03.473Z,11.30
2022-08-24T05:55:08.289Z,7.95
2022-08-24T05:58:13.143Z,7.53
2022-08-24T06:01:29.171Z,10.10
2022-08-24T06:04:33.491Z,9.00
2022-08-24T06:07:39.371Z,9.07
2022-08-24T06:10:44.555Z,8.80
2022-08-24T06:13:51.870Z,9.02
2022-08-24T06:17:00.492Z,9.80
2022-08-24T06:20:05.161Z,8.23
2022-08-24T06:23:10.497Z,10.52
2022-08-24T06:26:33.913Z,9.40
2022-08-24T06:29:38.085Z,8.63
2022-08-24T06:32:46.235Z,8.63
2022-08-24T06:35:50.737Z,8.85
2022-08-24T06:38:55.419Z,8.55
2022-08-24T06:42:00.314Z,7.95
2022-08-24T06:45:05.677Z,9.88
2022-08-24T06:48:09.788Z,12.13
2022-08-24T06:51:16.721Z,7.50
2022-08-24T06:54:21.945Z,7.97
2022-08-24T06:57:25.884Z,9.82
2022-08-24T07:00:29.750Z,7.60
2022-08-24T07:03:35.599Z,9.37
2022-08-24T07:06:39.239Z,6.87
2022-08-24T07:09:43.617Z,8.77
2022-08-24T07:12:47.775Z,9.68
2022-08-24T07:15:52.630Z,8.57
2022-08-24T07:18:57.296Z,10.80
2022-08-24T07:22:01.029Z,10.82
2022-08-24T07:25:05.923Z,8.07
2022-08-24T07:28:11.127Z,8.05
2022-08-24T07:31:15.931Z,7.97
2022-08-24T07:34:20.216Z,9.63
2022-08-24T07:37:23.888Z,12.68
2022-08-24T07:40:29.558Z,11.12
2022-08-24T07:43:33.612Z,10.63
2022-08-24T07:46:37.574Z,8.82
2022-08-24T07:49:41.947Z,9.20
2022-08-24T07:52:45.680Z,9.57
2022-08-24T07:55:56.739Z,7.85
2022-08-24T07:59:00.533Z,8.18
2022-08-24T08:02:05.648Z,10.93
2022-08-24T08:05:10.157Z,11.20
2022-08-24T08:08:16.500Z,12.43
2022-08-24T08:11:20.678Z,11.02
2022-08-24T08:14:23.940Z,8.00
2022-08-24T08:17:32.726Z,11.32
2022-08-24T08:20:39.679Z,11.30
2022-08-24T08:24:15.080Z,9.98
2022-08-24T08:27:18.851Z,13.75
2022-08-24T08:30:24.115Z,13.48
2022-08-24T08:33:27.730Z,10.65
2022-08-24T08:36:32.156Z,14.13
2022-08-24T08:39:37.242Z,11.77
2022-08-24T08:43:02.395Z,13.62
2022-08-24T08:46:14.945Z,13.70
2022-08-24T08:49:54.917Z,14.87
2022-08-24T08:53:25.435Z,12.17
2022-08-24T08:57:04.813Z,13.95
2022-08-24T09:00:17.367Z,16.92
2022-08-24T09:03:37.706Z,13.07
2022-08-24T09:07:08.597Z,12.30
2022-08-24T09:10:18.342Z,14.77
2022-08-24T09:13:27.210Z,13.45
2022-08-24T09:17:18.527Z,16.92
2022-08-24T09:20:34.060Z,19.98
2022-08-24T09:23:43.686Z,16.45
2022-08-24T09:27:05.714Z,20.43
2022-08-24T09:30:12.671Z,19.77
2022-08-24T09:33:33.039Z,13.93
2022-08-24T09:36:57.846Z,13.20
2022-08-24T09:40:23.029Z,15.90
2022-08-24T09:43:33.777Z,15.83
2022-08-24T09:47:04.473Z,18.92
2022-08-24T09:50:44.953Z,18.25
2022-08-24T09:54:16.517Z,18.05
2022-08-24T09:57:50.421Z,18.42
2022-08-24T10:01:32.490Z,21.77
2022-08-24T10:04:50.715Z,19.37
2022-08-24T10:08:28.553Z,11.57
2022-08-24T10:11:42.701Z,17.77
2022-08-24T10:15:06.993Z,18.37
2022-08-24T10:18:18.163Z,13.77
2022-08-24T10:21:37.447Z,15.63
2022-08-24T10:24:54.897Z,18.55
2022-08-24T10:28:23.632Z,16.67
2022-08-24T10:31:42.650Z,17.17
2022-08-24T10:34:54.851Z,20.13
2022-08-24T10:38:18.809Z,16.87
2022-08-24T10:41:50.020Z,18.08
2022-08-24T10:45:23.307Z,13.38
2022-08-24T10:48:34.675Z,18.42
2022-08-24T10:51:50.951Z,14.63
2022-08-24T10:54:54.871Z,18.33
2022-08-24T10:58:30.677Z,18.52
2022-08-24T11:01:40.139Z,17.42
2022-08-24T11:04:45.592Z,16.35
2022-08-24T11:07:57.863Z,17.67
2022-08-24T11:11:12.857Z,14.55
2022-08-24T11:14:16.968Z,16.33
2022-08-24T11:17:23.149Z,13.95
2022-08-24T11:20:35.581Z,14.87
2022-08-24T11:23:42.711Z,17.20
2022-08-24T11:27:18.768Z,19.60
2022-08-24T11:30:26.849Z,16.05
2022-08-24T11:33:49.745Z,18.87
2022-08-24T11:36:54.828Z,12.98
2022-08-24T11:39:58.509Z,16.07
2022-08-24T11:43:21.156Z,13.23
2022-08-24T11:46:36.233Z,13.43
2022-08-24T11:50:21.481Z,14.20
2022-08-24T11:53:34.138Z,15.02
2022-08-24T11:56:55.811Z,16.07
2022-08-24T12:00:15.177Z,16.17
2022-08-24T12:03:37.546Z,18.42
2022-08-24T12:07:08.940Z,12.37
2022-08-24T12:10:20.644Z,14.32
2022-08-24T12:13:30.040Z,13.03
2022-08-24T12:16:46.740Z,17.75
2022-08-24T12:19:56.065Z,13.00
2022-08-24T12:23:08.899Z,13.15
2022-08-24T12:26:15.249Z,14.57
2022-08-24T12:29:28.170Z,12.53
2022-08-24T12:32:38.061Z,12.30
2022-08-24T12:35:51.224Z,15.00
2022-08-24T12:39:15.641Z,11.52
2022-08-24T12:42:26.034Z,13.77
2022-08-24T12:45:31.210Z,12.17
2022-08-24T12:48:39.586Z,15.75
2022-08-24T12:52:12.043Z,12.23
2022-08-24T12:55:24.795Z,12.82
2022-08-24T12:59:02.571Z,12.40
2022-08-24T13:02:08.610Z,10.70
2022-08-24T13:05:16.905Z,12.77
2022-08-24T13:08:32.490Z,12.82
2022-08-24T13:11:36.716Z,12.05
2022-08-24T13:14:45.887Z,13.13
2022-08-24T13:18:00.262Z,15.00
2022-08-24T13:21:17.806Z,14.82
2022-08-24T13:24:29.807Z,13.60
2022-08-24T13:27:36.244Z,15.77
2022-08-24T13:30:59.022Z,18.05
2022-08-24T13:34:17.731Z,9.37
2022-08-24T13:37:26.204Z,12.68
2022-08-24T13:40:45.939Z,11.50
2022-08-24T13:44:01.383Z,11.57
2022-08-24T13:47:17.445Z,11.93
2022-08-24T13:51:07.812Z,13.43
2022-08-24T13:54:25.617Z,12.80
2022-08-24T13:57:45.471Z,19.37
2022-08-24T14:01:18.566Z,13.15
2022-08-24T14:04:56.766Z,12.50
2022-08-24T14:08:27.874Z,9.47
2022-08-24T14:11:37.638Z,12.10
2022-08-24T14:14:59.238Z,10.60
2022-08-24T14:18:30.005Z,9.30
2022-08-24T14:21:49.887Z,7.82
2022-08-24T14:25:14.748Z,8.87
2022-08-24T14:28:22.110Z,10.00
2022-08-24T14:31:30.219Z,9.77
2022-08-24T14:35:12.877Z,9.57
2022-08-24T14:38:28.205Z,11.18
2022-08-24T14:41:38.684Z,11.63
2022-08-24T14:45:03.218Z,10.63
2022-08-24T14:48:24.390Z,8.63
2022-08-24T14:52:03.133Z,9.30
2022-08-24T14:55:35.741Z,10.68
2022-08-24T14:59:07.641Z,9.90
2022-08-24T15:02:29.852Z,14.90
2022-08-24T15:05:34.540Z,13.10
2022-08-24T15:08:43.876Z,11.85
2022-08-24T15:11:51.108Z,10.27
2022-08-24T15:15:16.054Z,11.47
2022-08-24T15:18:21.845Z,7.80
2022-08-24T15:21:36.718Z,11.68
2022-08-24T15:24:49.889Z,10.65
2022-08-24T15:28:14.751Z,11.27
2022-08-24T15:31:23.016Z,11.47
2022-08-24T15:34:53.314Z,9.77
2022-08-24T15:37:56.520Z,10.02
2022-08-24T15:41:12.073Z,7.75
2022-08-24T15:44:23.380Z,9.77
2022-08-24T15:47:33.679Z,12.33
2022-08-24T15:50:43.441Z,13.95
2022-08-24T15:53:48.138Z,33.70
2022-08-24T15:56:56.600Z,21.92
2022-08-24T16:00:44.601Z,17.95
2022-08-24T16:03:54.046Z,14.80
2022-08-24T16:06:58.139Z,15.68
2022-08-24T16:10:11.489Z,14.55
2022-08-24T16:13:17.963Z,15.18
2022-08-24T16:16:34.876Z,18.90
2022-08-24T16:19:37.575Z,11.87
2022-08-24T16:23:13.128Z,16.95
2022-08-24T16:26:26.991Z,15.75
2022-08-24T16:29:53.572Z,12.45
2022-08-24T16:33:00.434Z,16.33
2022-08-24T16:36:06.737Z,12.03
2022-08-24T16:39:11.810Z,12.50
2022-08-24T16:42:21.683Z,14.30
2022-08-24T16:45:24.634Z,12.50
2022-08-24T16:48:29.217Z,16.12
2022-08-24T16:51:32.382Z,12.57
2022-08-24T16:54:36.643Z,13.55
2022-08-24T16:57:40.479Z,10.85
2022-08-24T17:00:46.366Z,14.32
2022-08-24T17:03:49.466Z,12.98
2022-08-24T17:06:58.407Z,18.23
2022-08-24T17:10:05.040Z,13.15
2022-08-24T17:13:08.714Z,14.05
2022-08-24T17:16:11.875Z,12.88
2022-08-24T17:19:18.675Z,11.50
2022-08-24T17:22:24.604Z,11.97
2022-08-24T17:25:31.123Z,17.95
2022-08-24T17:28:39.314Z,12.45
2022-08-24T17:31:42.978Z,12.90
2022-08-24T17:34:51.040Z,11.27
2022-08-24T17:37:54.053Z,12.07
2022-08-24T17:40:57.522Z,13.65
2022-08-24T17:44:01.541Z,12.80
2022-08-24T17:47:05.632Z,12.43
2022-08-24T17:50:10.425Z,15.60
2022-08-24T17:53:14.493Z,14.93
2022-08-24T17:56:18.827Z,13.30
2022-08-24T17:59:30.245Z,12.70
2022-08-24T18:02:34.965Z,13.68
2022-08-24T18:05:39.112Z,13.38
2022-08-24T18:08:42.374Z,16.93
2022-08-24T18:11:47.446Z,17.27
2022-08-24T18:14:51.276Z,18.62
2022-08-24T18:17:56.310Z,13.35
2022-08-24T18:21:00.065Z,15.95
2022-08-24T18:24:05.012Z,15.50
2022-08-24T18:27:24.681Z,17.17
2022-08-24T18:30:30.807Z,18.17
2022-08-24T18:33:36.009Z,13.20
2022-08-24T18:36:41.262Z,16.23
2022-08-24T18:39:44.621Z,17.23
2022-08-24T18:42:49.361Z,16.67
2022-08-24T18:45:53.531Z,13.88
2022-08-24T18:48:57.682Z,14.05
2022-08-24T18:52:00.751Z,15.75
2022-08-24T18:55:06.685Z,12.97
2022-08-24T18:58:10.463Z,12.37
2022-08-24T19:01:13.985Z,16.50
2022-08-24T19:04:17.651Z,14.43
2022-08-24T19:07:28.303Z,12.35
2022-08-24T19:10:35.989Z,11.70
2022-08-24T19:13:41.702Z,12.88
2022-08-24T19:16:44.522Z,15.70
2022-08-24T19:19:51.025Z,20.58
2022-08-24T19:22:54.730Z,15.00
2022-08-24T19:25:58.743Z,20.57
2022-08-24T19:29:07.999Z,18.10
2022-08-24T19:32:19.882Z,17.95
2022-08-24T19:35:25.258Z,11.75
2022-08-24T19:38:31.067Z,13.93
2022-08-24T19:41:36.729Z,12.87
2022-08-24T19:44:59.083Z,11.38
2022-08-24T19:48:02.374Z,13.55
2022-08-24T19:51:08.333Z,17.90
2022-08-24T19:54:11.428Z,16.17
2022-08-24T19:57:34.139Z,17.90
2022-08-24T20:00:42.537Z,16.40
2022-08-24T20:03:52.030Z,13.88
2022-08-24T20:06:55.469Z,14.25
2022-08-24T20:10:00.319Z,15.38
2022-08-24T20:13:16.198Z,12.17
2022-08-24T20:16:22.410Z,15.10
2022-08-24T20:19:25.395Z,12.40
2022-08-24T20:22:30.649Z,12.70
2022-08-24T20:25:37.487Z,12.27
2022-08-24T20:28:46.177Z,18.30
2022-08-24T20:31:50.607Z,15.18
2022-08-24T20:34:55.810Z,15.48
2022-08-24T20:37:59.914Z,13.07
2022-08-24T20:41:03.738Z,12.90
2022-08-24T20:44:09.306Z,13.80
2022-08-24T20:47:13.759Z,14.77
2022-08-24T20:50:19.617Z,13.85
2022-08-24T20:53:25.033Z,14.35
2022-08-24T20:56:34.027Z,15.50
2022-08-24T20:59:37.731Z,20.43
2022-08-24T21:02:41.376Z,11.88
2022-08-24T21:05:48.485Z,16.05
2022-08-24T21:08:53.112Z,13.57
2022-08-24T21:11:56.929Z,14.85
2022-08-24T21:15:00.166Z,14.57
2022-08-24T21:18:03.765Z,14.68
2022-08-24T21:21:07.062Z,16.48
2022-08-24T21:24:10.818Z,15.02
2022-08-24T21:27:13.913Z,13.48
2022-08-24T21:30:21.765Z,13.83
2022-08-24T21:33:43.574Z,12.35
2022-08-24T21:36:47.844Z,13.43
2022-08-24T21:39:51.274Z,12.85
2022-08-24T21:42:54.959Z,12.20
2022-08-24T21:45:57.785Z,12.03
2022-08-24T21:49:03.648Z,11.27
2022-08-24T21:52:07.660Z,11.15
2022-08-24T21:55:15.021Z,11.02
2022-08-24T21:58:19.118Z,16.00
2022-08-24T22:01:22.980Z,16.67
2022-08-24T22:04:27.148Z,14.07
2022-08-24T22:07:29.828Z,11.80
2022-08-24T22:10:35.146Z,12.63
2022-08-24T22:13:39.915Z,13.82
2022-08-24T22:16:45.827Z,14.70
2022-08-24T22:19:49.442Z,14.25
2022-08-24T22:22:53.324Z,12.68
2022-08-24T22:25:56.469Z,11.93
2022-08-24T22:29:01.141Z,10.88
2022-08-24T22:32:04.420Z,13.30
2022-08-24T22:35:09.100Z,13.45
2022-08-24T22:38:12.154Z,14.48
2022-08-24T22:41:16.626Z,15.23
2022-08-24T22:44:21.767Z,11.75
2022-08-24T22:47:25.887Z,12.23
2022-08-24T22:50:32.353Z,11.40
2022-08-24T22:53:36.439Z,9.90
2022-08-24T22:56:42.580Z,15.93
2022-08-24T22:59:47.018Z,13.27
2022-08-24T23:02:49.754Z,14.17
2022-08-24T23:05:53.821Z,15.30
2022-08-24T23:08:58.990Z,16.17
2022-08-24T23:12:01.979Z,13.00
2022-08-24T23:15:06.141Z,13.60
2022-08-24T23:18:33.327Z,16.30
2022-08-24T23:21:36.176Z,14.40
2022-08-24T23:24:42.783Z,14.10
2022-08-24T23:27:49.832Z,12.82
2022-08-24T23:30:52.861Z,12.65
2022-08-24T23:33:58.306Z,14.00
2022-08-24T23:37:03.117Z,14.95
2022-08-24T23:40:07.044Z,11.50
2022-08-24T23:43:10.256Z,14.82
2022-08-24T23:46:14.825Z,14.18
2022-08-24T23:49:20.149Z,18.70
2022-08-24T23:52:26.466Z,10.90
2022-08-24T23:55:32.268Z,15.45
2022-08-24T23:58:36.134Z,11.45
